sensor_id;sensor_type;location;lat;lon;timestamp;temperature;humidity
21672;DHT22;10997;52.242;8.168;2023-04-06T00:03:33;1.90;99.90
21672;DHT22;10997;52.242;8.168;2023-04-06T00:08:34;2.00;99.90
21672;DHT22;10997;52.242;8.168;2023-04-06T00:13:34;2.00;99.90
21672;DHT22;10997;52.242;8.168;2023-04-06T00:18:35;2.00;99.90
21672;DHT22;10997;52.242;8.168;2023-04-06T00:23:36;2.00;99.90
21672;DHT22;10997;52.242;8.168;2023-04-06T00:28:39;2.00;99.90
21672;DHT22;10997;52.242;8.168;2023-04-06T00:33:40;2.00;99.90
21672;DHT22;10997;52.242;8.168;2023-04-06T00:38:40;2.00;99.90
21672;DHT22;10997;52.242;8.168;2023-04-06T00:43:41;2.00;99.90
21672;DHT22;10997;52.242;8.168;2023-04-06T00:48:42;2.10;99.90
21672;DHT22;10997;52.242;8.168;2023-04-06T00:53:42;2.10;99.90
21672;DHT22;10997;52.242;8.168;2023-04-06T00:58:43;2.10;99.90
21672;DHT22;10997;52.242;8.168;2023-04-06T01:03:44;2.10;99.90
21672;DHT22;10997;52.242;8.168;2023-04-06T01:08:47;2.10;99.90
21672;DHT22;10997;52.242;8.168;2023-04-06T01:13:48;2.20;99.90
21672;DHT22;10997;52.242;8.168;2023-04-06T01:18:49;2.10;99.90
21672;DHT22;10997;52.242;8.168;2023-04-06T01:23:51;2.10;99.90
21672;DHT22;10997;52.242;8.168;2023-04-06T01:28:51;2.10;99.90
21672;DHT22;10997;52.242;8.168;2023-04-06T01:33:52;2.00;99.90
21672;DHT22;10997;52.242;8.168;2023-04-06T01:38:53;1.90;99.90
21672;DHT22;10997;52.242;8.168;2023-04-06T01:43:54;1.90;99.90
21672;DHT22;10997;52.242;8.168;2023-04-06T01:48:55;1.80;99.90
21672;DHT22;10997;52.242;8.168;2023-04-06T01:53:55;1.60;99.90
21672;DHT22;10997;52.242;8.168;2023-04-06T01:58:56;1.40;99.90
21672;DHT22;10997;52.242;8.168;2023-04-06T02:03:56;1.30;99.90
21672;DHT22;10997;52.242;8.168;2023-04-06T02:08:57;1.20;99.90
21672;DHT22;10997;52.242;8.168;2023-04-06T02:13:57;1.10;99.90
21672;DHT22;10997;52.242;8.168;2023-04-06T02:19:00;1.10;99.90
21672;DHT22;10997;52.242;8.168;2023-04-06T02:24:01;1.00;99.90
21672;DHT22;10997;52.242;8.168;2023-04-06T02:29:01;0.90;99.90
21672;DHT22;10997;52.242;8.168;2023-04-06T02:34:02;0.90;99.90
21672;DHT22;10997;52.242;8.168;2023-04-06T02:39:03;0.80;99.90
21672;DHT22;10997;52.242;8.168;2023-04-06T02:44:04;0.70;99.90
21672;DHT22;10997;52.242;8.168;2023-04-06T02:49:05;0.70;99.90
21672;DHT22;10997;52.242;8.168;2023-04-06T02:54:05;0.60;99.90
21672;DHT22;10997;52.242;8.168;2023-04-06T02:59:06;0.60;99.90
21672;DHT22;10997;52.242;8.168;2023-04-06T03:04:07;0.60;99.90
21672;DHT22;10997;52.242;8.168;2023-04-06T03:09:07;0.60;99.90
21672;DHT22;10997;52.242;8.168;2023-04-06T03:14:08;0.50;99.90
21672;DHT22;10997;52.242;8.168;2023-04-06T03:19:08;0.50;99.90
21672;DHT22;10997;52.242;8.168;2023-04-06T03:24:09;0.50;99.90
21672;DHT22;10997;52.242;8.168;2023-04-06T03:29:10;0.40;99.90
21672;DHT22;10997;52.242;8.168;2023-04-06T03:34:10;0.40;99.90
21672;DHT22;10997;52.242;8.168;2023-04-06T03:39:11;0.40;99.90
21672;DHT22;10997;52.242;8.168;2023-04-06T03:44:11;0.30;99.90
21672;DHT22;10997;52.242;8.168;2023-04-06T03:49:12;0.30;99.90
21672;DHT22;10997;52.242;8.168;2023-04-06T03:54:12;0.30;99.90
21672;DHT22;10997;52.242;8.168;2023-04-06T03:59:13;0.20;99.90
21672;DHT22;10997;52.242;8.168;2023-04-06T04:04:14;0.20;99.90
21672;DHT22;10997;52.242;8.168;2023-04-06T04:09:14;0.20;99.90
21672;DHT22;10997;52.242;8.168;2023-04-06T04:14:15;0.10;99.90
21672;DHT22;10997;52.242;8.168;2023-04-06T04:19:16;0.10;99.90
21672;DHT22;10997;52.242;8.168;2023-04-06T04:24:16;0.10;99.90
21672;DHT22;10997;52.242;8.168;2023-04-06T04:29:17;0.00;99.90
21672;DHT22;10997;52.242;8.168;2023-04-06T04:34:21;0.00;99.90
21672;DHT22;10997;52.242;8.168;2023-04-06T04:39:24;0.00;99.90
21672;DHT22;10997;52.242;8.168;2023-04-06T04:44:24;0.00;99.90
21672;DHT22;10997;52.242;8.168;2023-04-06T04:49:25;0.00;99.90
21672;DHT22;10997;52.242;8.168;2023-04-06T04:54:26;0.00;99.90
21672;DHT22;10997;52.242;8.168;2023-04-06T04:59:26;-0.10;99.90
21672;DHT22;10997;52.242;8.168;2023-04-06T05:04:27;0.00;99.90
21672;DHT22;10997;52.242;8.168;2023-04-06T05:09:29;0.00;99.90
21672;DHT22;10997;52.242;8.168;2023-04-06T05:14:30;-0.10;99.90
21672;DHT22;10997;52.242;8.168;2023-04-06T05:19:31;-0.10;99.90
21672;DHT22;10997;52.242;8.168;2023-04-06T05:24:32;0.00;99.90
21672;DHT22;10997;52.242;8.168;2023-04-06T05:29:33;0.00;99.90
21672;DHT22;10997;52.242;8.168;2023-04-06T05:34:34;0.00;99.90
21672;DHT22;10997;52.242;8.168;2023-04-06T05:39:34;0.10;99.90
21672;DHT22;10997;52.242;8.168;2023-04-06T05:44:37;0.20;99.90
21672;DHT22;10997;52.242;8.168;2023-04-06T05:49:37;0.30;99.90
21672;DHT22;10997;52.242;8.168;2023-04-06T05:54:38;0.50;99.90
21672;DHT22;10997;52.242;8.168;2023-04-06T05:59:39;0.60;99.90
21672;DHT22;10997;52.242;8.168;2023-04-06T06:04:39;0.70;99.90
21672;DHT22;10997;52.242;8.168;2023-04-06T06:09:40;0.90;99.90
21672;DHT22;10997;52.242;8.168;2023-04-06T06:14:41;1.10;99.90
21672;DHT22;10997;52.242;8.168;2023-04-06T06:19:41;1.30;99.90
21672;DHT22;10997;52.242;8.168;2023-04-06T06:24:42;1.40;99.90
21672;DHT22;10997;52.242;8.168;2023-04-06T06:29:42;1.60;99.90
21672;DHT22;10997;52.242;8.168;2023-04-06T06:34:43;1.90;99.90
21672;DHT22;10997;52.242;8.168;2023-04-06T06:39:44;2.10;99.90
21672;DHT22;10997;52.242;8.168;2023-04-06T06:44:44;2.30;99.90
21672;DHT22;10997;52.242;8.168;2023-04-06T06:49:45;2.60;99.90
21672;DHT22;10997;52.242;8.168;2023-04-06T06:54:45;2.80;99.90
21672;DHT22;10997;52.242;8.168;2023-04-06T06:59:46;3.00;99.90
21672;DHT22;10997;52.242;8.168;2023-04-06T07:04:49;3.20;99.90
21672;DHT22;10997;52.242;8.168;2023-04-06T07:09:50;3.40;99.90
21672;DHT22;10997;52.242;8.168;2023-04-06T07:14:51;3.60;99.90
21672;DHT22;10997;52.242;8.168;2023-04-06T07:19:51;3.80;99.90
21672;DHT22;10997;52.242;8.168;2023-04-06T07:24:52;4.10;99.90
21672;DHT22;10997;52.242;8.168;2023-04-06T07:29:52;4.30;99.90
21672;DHT22;10997;52.242;8.168;2023-04-06T07:34:53;4.60;99.90
21672;DHT22;10997;52.242;8.168;2023-04-06T07:39:54;4.80;99.90
21672;DHT22;10997;52.242;8.168;2023-04-06T07:44:54;5.00;99.90
21672;DHT22;10997;52.242;8.168;2023-04-06T07:49:55;5.40;99.90
21672;DHT22;10997;52.242;8.168;2023-04-06T07:54:59;5.70;99.90
21672;DHT22;10997;52.242;8.168;2023-04-06T07:59:59;6.00;99.90
21672;DHT22;10997;52.242;8.168;2023-04-06T08:05:01;6.30;99.90
21672;DHT22;10997;52.242;8.168;2023-04-06T08:10:01;6.60;99.90
21672;DHT22;10997;52.242;8.168;2023-04-06T08:15:02;6.80;99.90
21672;DHT22;10997;52.242;8.168;2023-04-06T08:20:04;7.10;99.90
21672;DHT22;10997;52.242;8.168;2023-04-06T08:25:05;7.30;99.90
21672;DHT22;10997;52.242;8.168;2023-04-06T08:30:06;7.50;99.90
21672;DHT22;10997;52.242;8.168;2023-04-06T08:35:07;7.70;99.90
21672;DHT22;10997;52.242;8.168;2023-04-06T08:40:08;7.90;99.60
21672;DHT22;10997;52.242;8.168;2023-04-06T08:45:09;8.20;98.70
21672;DHT22;10997;52.242;8.168;2023-04-06T08:50:10;8.40;98.80
21672;DHT22;10997;52.242;8.168;2023-04-06T08:55:12;8.50;98.70
21672;DHT22;10997;52.242;8.168;2023-04-06T09:00:13;8.70;98.40
21672;DHT22;10997;52.242;8.168;2023-04-06T09:05:14;8.90;97.50
21672;DHT22;10997;52.242;8.168;2023-04-06T09:10:16;9.10;96.30
21672;DHT22;10997;52.242;8.168;2023-04-06T09:15:19;9.10;96.00
21672;DHT22;10997;52.242;8.168;2023-04-06T09:20:24;9.10;95.00
21672;DHT22;10997;52.242;8.168;2023-04-06T09:25:28;9.50;94.40
21672;DHT22;10997;52.242;8.168;2023-04-06T09:30:30;9.80;93.70
21672;DHT22;10997;52.242;8.168;2023-04-06T09:35:31;10.10;93.20
21672;DHT22;10997;52.242;8.168;2023-04-06T09:40:33;10.10;92.80
21672;DHT22;10997;52.242;8.168;2023-04-06T09:45:33;10.10;92.20
21672;DHT22;10997;52.242;8.168;2023-04-06T09:50:34;10.30;92.30
21672;DHT22;10997;52.242;8.168;2023-04-06T09:55:40;10.70;92.10
21672;DHT22;10997;52.242;8.168;2023-04-06T10:01:03;11.10;91.60
21672;DHT22;10997;52.242;8.168;2023-04-06T10:06:08;11.30;90.40
21672;DHT22;10997;52.242;8.168;2023-04-06T10:11:10;11.50;90.70
21672;DHT22;10997;52.242;8.168;2023-04-06T10:16:13;11.40;90.60
21672;DHT22;10997;52.242;8.168;2023-04-06T10:21:19;11.40;90.30
21672;DHT22;10997;52.242;8.168;2023-04-06T10:26:21;11.60;90.40
21672;DHT22;10997;52.242;8.168;2023-04-06T10:31:26;12.10;90.70
21672;DHT22;10997;52.242;8.168;2023-04-06T10:36:31;11.80;89.20
21672;DHT22;10997;52.242;8.168;2023-04-06T10:41:42;11.90;88.30
21672;DHT22;10997;52.242;8.168;2023-04-06T10:46:55;12.40;90.10
21672;DHT22;10997;52.242;8.168;2023-04-06T10:51:57;12.80;89.30
21672;DHT22;10997;52.242;8.168;2023-04-06T10:56:58;12.90;89.00
21672;DHT22;10997;52.242;8.168;2023-04-06T11:01:58;12.80;87.50
21672;DHT22;10997;52.242;8.168;2023-04-06T11:06:59;12.80;88.30
21672;DHT22;10997;52.242;8.168;2023-04-06T11:11:59;13.10;88.50
21672;DHT22;10997;52.242;8.168;2023-04-06T11:17:01;13.30;87.40
21672;DHT22;10997;52.242;8.168;2023-04-06T11:22:07;13.30;85.50
21672;DHT22;10997;52.242;8.168;2023-04-06T11:27:08;13.80;86.00
21672;DHT22;10997;52.242;8.168;2023-04-06T11:32:08;13.80;82.90
21672;DHT22;10997;52.242;8.168;2023-04-06T11:37:11;13.90;82.90
21672;DHT22;10997;52.242;8.168;2023-04-06T11:42:12;13.70;80.00
21672;DHT22;10997;52.242;8.168;2023-04-06T11:47:13;14.00;81.20
21672;DHT22;10997;52.242;8.168;2023-04-06T11:52:19;13.80;77.20
21672;DHT22;10997;52.242;8.168;2023-04-06T11:57:21;13.90;78.80
21672;DHT22;10997;52.242;8.168;2023-04-06T12:02:24;14.50;77.70
21672;DHT22;10997;52.242;8.168;2023-04-06T12:07:25;14.90;78.70
21672;DHT22;10997;52.242;8.168;2023-04-06T12:12:26;14.30;72.20
21672;DHT22;10997;52.242;8.168;2023-04-06T12:17:26;14.40;73.80
21672;DHT22;10997;52.242;8.168;2023-04-06T12:22:27;14.70;74.40
21672;DHT22;10997;52.242;8.168;2023-04-06T12:27:27;14.90;74.00
21672;DHT22;10997;52.242;8.168;2023-04-06T12:32:28;14.60;72.70
21672;DHT22;10997;52.242;8.168;2023-04-06T12:37:29;14.90;71.90
21672;DHT22;10997;52.242;8.168;2023-04-06T12:42:29;15.00;72.40
21672;DHT22;10997;52.242;8.168;2023-04-06T12:47:30;14.60;70.90
21672;DHT22;10997;52.242;8.168;2023-04-06T12:52:31;14.60;70.80
21672;DHT22;10997;52.242;8.168;2023-04-06T12:57:35;15.30;71.60
21672;DHT22;10997;52.242;8.168;2023-04-06T13:02:37;15.40;71.10
21672;DHT22;10997;52.242;8.168;2023-04-06T13:07:38;15.30;70.00
21672;DHT22;10997;52.242;8.168;2023-04-06T13:12:38;15.00;67.50
21672;DHT22;10997;52.242;8.168;2023-04-06T13:17:39;14.70;68.10
21672;DHT22;10997;52.242;8.168;2023-04-06T13:22:39;14.90;68.50
21672;DHT22;10997;52.242;8.168;2023-04-06T13:27:40;15.00;69.80
21672;DHT22;10997;52.242;8.168;2023-04-06T13:32:41;14.90;68.70
21672;DHT22;10997;52.242;8.168;2023-04-06T13:37:42;14.80;70.10
21672;DHT22;10997;52.242;8.168;2023-04-06T13:42:42;14.80;70.10
21672;DHT22;10997;52.242;8.168;2023-04-06T13:47:45;14.60;67.60
21672;DHT22;10997;52.242;8.168;2023-04-06T13:52:46;14.80;66.40
21672;DHT22;10997;52.242;8.168;2023-04-06T13:57:50;14.90;66.10
21672;DHT22;10997;52.242;8.168;2023-04-06T14:02:54;14.90;65.20
21672;DHT22;10997;52.242;8.168;2023-04-06T14:07:55;14.80;63.50
21672;DHT22;10997;52.242;8.168;2023-04-06T14:12:56;14.60;63.40
21672;DHT22;10997;52.242;8.168;2023-04-06T14:17:58;14.50;63.80
21672;DHT22;10997;52.242;8.168;2023-04-06T14:23:02;14.70;64.90
21672;DHT22;10997;52.242;8.168;2023-04-06T14:28:03;14.60;64.60
21672;DHT22;10997;52.242;8.168;2023-04-06T14:33:04;14.60;64.90
21672;DHT22;10997;52.242;8.168;2023-04-06T14:38:04;14.80;66.30
21672;DHT22;10997;52.242;8.168;2023-04-06T14:43:05;15.00;64.60
21672;DHT22;10997;52.242;8.168;2023-04-06T14:48:06;15.10;63.90
21672;DHT22;10997;52.242;8.168;2023-04-06T14:53:07;15.30;61.90
21672;DHT22;10997;52.242;8.168;2023-04-06T14:58:07;15.00;60.10
21672;DHT22;10997;52.242;8.168;2023-04-06T15:03:08;14.90;59.30
21672;DHT22;10997;52.242;8.168;2023-04-06T15:08:08;14.60;59.60
21672;DHT22;10997;52.242;8.168;2023-04-06T15:13:14;14.50;59.30
21672;DHT22;10997;52.242;8.168;2023-04-06T15:18:23;14.50;60.90
21672;DHT22;10997;52.242;8.168;2023-04-06T15:23:24;14.50;61.30
21672;DHT22;10997;52.242;8.168;2023-04-06T15:28:25;14.60;60.60
21672;DHT22;10997;52.242;8.168;2023-04-06T15:33:26;14.70;62.20
21672;DHT22;10997;52.242;8.168;2023-04-06T15:38:27;14.80;61.10
21672;DHT22;10997;52.242;8.168;2023-04-06T15:43:29;14.70;60.90
21672;DHT22;10997;52.242;8.168;2023-04-06T15:48:29;14.70;61.00
21672;DHT22;10997;52.242;8.168;2023-04-06T15:53:31;14.80;61.10
21672;DHT22;10997;52.242;8.168;2023-04-06T15:58:32;14.50;61.80
21672;DHT22;10997;52.242;8.168;2023-04-06T16:03:33;14.20;61.10
21672;DHT22;10997;52.242;8.168;2023-04-06T16:08:34;14.10;62.10
21672;DHT22;10997;52.242;8.168;2023-04-06T16:13:35;14.00;62.40
21672;DHT22;10997;52.242;8.168;2023-04-06T16:18:36;14.00;63.30
21672;DHT22;10997;52.242;8.168;2023-04-06T16:23:36;13.90;63.50
21672;DHT22;10997;52.242;8.168;2023-04-06T16:28:37;13.70;63.70
21672;DHT22;10997;52.242;8.168;2023-04-06T16:33:37;13.60;64.30
21672;DHT22;10997;52.242;8.168;2023-04-06T16:38:38;13.70;64.00
21672;DHT22;10997;52.242;8.168;2023-04-06T16:43:38;13.60;63.90
21672;DHT22;10997;52.242;8.168;2023-04-06T16:48:39;13.40;64.50
21672;DHT22;10997;52.242;8.168;2023-04-06T16:53:40;13.20;67.50
21672;DHT22;10997;52.242;8.168;2023-04-06T16:58:40;12.80;69.50
21672;DHT22;10997;52.242;8.168;2023-04-06T17:03:41;12.60;70.90
21672;DHT22;10997;52.242;8.168;2023-04-06T17:08:44;12.50;72.50
21672;DHT22;10997;52.242;8.168;2023-04-06T17:13:47;12.40;73.70
21672;DHT22;10997;52.242;8.168;2023-04-06T17:18:48;12.30;75.50
21672;DHT22;10997;52.242;8.168;2023-04-06T17:23:49;12.20;76.50
21672;DHT22;10997;52.242;8.168;2023-04-06T17:28:49;12.10;77.90
21672;DHT22;10997;52.242;8.168;2023-04-06T17:33:50;11.90;79.50
21672;DHT22;10997;52.242;8.168;2023-04-06T17:38:51;11.80;81.20
21672;DHT22;10997;52.242;8.168;2023-04-06T17:43:51;11.70;82.50
21672;DHT22;10997;52.242;8.168;2023-04-06T17:48:52;11.60;84.00
21672;DHT22;10997;52.242;8.168;2023-04-06T17:53:52;11.50;85.20
21672;DHT22;10997;52.242;8.168;2023-04-06T17:58:56;11.40;86.60
21672;DHT22;10997;52.242;8.168;2023-04-06T18:03:57;11.40;87.80
21672;DHT22;10997;52.242;8.168;2023-04-06T18:08:58;11.30;88.80
21672;DHT22;10997;52.242;8.168;2023-04-06T18:13:59;11.10;90.00
21672;DHT22;10997;52.242;8.168;2023-04-06T18:19:00;11.00;90.40
21672;DHT22;10997;52.242;8.168;2023-04-06T18:24:01;10.90;90.70
21672;DHT22;10997;52.242;8.168;2023-04-06T18:29:01;10.90;90.90
21672;DHT22;10997;52.242;8.168;2023-04-06T18:34:02;10.80;91.10
21672;DHT22;10997;52.242;8.168;2023-04-06T18:39:04;10.80;91.50
21672;DHT22;10997;52.242;8.168;2023-04-06T18:44:04;10.80;91.50
21672;DHT22;10997;52.242;8.168;2023-04-06T18:49:05;10.70;91.60
21672;DHT22;10997;52.242;8.168;2023-04-06T18:54:06;10.60;92.30
21672;DHT22;10997;52.242;8.168;2023-04-06T18:59:07;10.60;92.90
21672;DHT22;10997;52.242;8.168;2023-04-06T19:04:08;10.40;93.70
21672;DHT22;10997;52.242;8.168;2023-04-06T19:09:10;10.30;94.90
21672;DHT22;10997;52.242;8.168;2023-04-06T19:14:11;10.10;96.80
21672;DHT22;10997;52.242;8.168;2023-04-06T19:19:11;10.00;97.80
21672;DHT22;10997;52.242;8.168;2023-04-06T19:24:12;9.80;99.80
21672;DHT22;10997;52.242;8.168;2023-04-06T19:29:12;9.70;99.90
21672;DHT22;10997;52.242;8.168;2023-04-06T19:34:13;9.60;99.90
21672;DHT22;10997;52.242;8.168;2023-04-06T19:39:17;9.50;99.90
21672;DHT22;10997;52.242;8.168;2023-04-06T19:44:17;9.40;99.90
21672;DHT22;10997;52.242;8.168;2023-04-06T19:49:18;9.30;99.90
21672;DHT22;10997;52.242;8.168;2023-04-06T19:54:19;9.20;99.90
21672;DHT22;10997;52.242;8.168;2023-04-06T19:59:20;9.10;99.90
21672;DHT22;10997;52.242;8.168;2023-04-06T20:04:21;9.00;99.90
21672;DHT22;10997;52.242;8.168;2023-04-06T20:09:21;9.00;99.90
21672;DHT22;10997;52.242;8.168;2023-04-06T20:14:22;8.90;99.90
21672;DHT22;10997;52.242;8.168;2023-04-06T20:19:22;8.80;99.90
21672;DHT22;10997;52.242;8.168;2023-04-06T20:24:23;8.70;99.90
21672;DHT22;10997;52.242;8.168;2023-04-06T20:29:24;8.60;99.90
21672;DHT22;10997;52.242;8.168;2023-04-06T20:34:24;8.50;99.90
21672;DHT22;10997;52.242;8.168;2023-04-06T20:39:28;8.40;99.90
21672;DHT22;10997;52.242;8.168;2023-04-06T20:44:30;8.40;99.90
21672;DHT22;10997;52.242;8.168;2023-04-06T20:49:31;8.30;99.90
21672;DHT22;10997;52.242;8.168;2023-04-06T20:54:31;8.20;99.90
21672;DHT22;10997;52.242;8.168;2023-04-06T20:59:32;8.20;99.90
21672;DHT22;10997;52.242;8.168;2023-04-06T21:04:33;8.10;99.90
21672;DHT22;10997;52.242;8.168;2023-04-06T21:09:35;8.00;99.90
21672;DHT22;10997;52.242;8.168;2023-04-06T21:14:36;8.00;99.90
21672;DHT22;10997;52.242;8.168;2023-04-06T21:19:36;8.00;99.90
21672;DHT22;10997;52.242;8.168;2023-04-06T21:24:37;8.00;99.90
21672;DHT22;10997;52.242;8.168;2023-04-06T21:29:38;7.90;99.90
21672;DHT22;10997;52.242;8.168;2023-04-06T21:34:42;7.90;99.90
21672;DHT22;10997;52.242;8.168;2023-04-06T21:39:46;7.80;99.90
21672;DHT22;10997;52.242;8.168;2023-04-06T21:44:46;7.80;99.90
21672;DHT22;10997;52.242;8.168;2023-04-06T21:49:47;7.80;99.90
21672;DHT22;10997;52.242;8.168;2023-04-06T21:54:47;7.70;99.90
21672;DHT22;10997;52.242;8.168;2023-04-06T21:59:48;7.70;99.90
21672;DHT22;10997;52.242;8.168;2023-04-06T22:04:48;7.70;99.90
21672;DHT22;10997;52.242;8.168;2023-04-06T22:09:49;7.70;99.90
21672;DHT22;10997;52.242;8.168;2023-04-06T22:14:51;7.70;99.90
21672;DHT22;10997;52.242;8.168;2023-04-06T22:19:51;7.70;99.90
21672;DHT22;10997;52.242;8.168;2023-04-06T22:24:52;7.70;99.90
21672;DHT22;10997;52.242;8.168;2023-04-06T22:29:52;7.70;99.90
21672;DHT22;10997;52.242;8.168;2023-04-06T22:34:53;7.70;99.90
21672;DHT22;10997;52.242;8.168;2023-04-06T22:39:54;7.70;99.90
21672;DHT22;10997;52.242;8.168;2023-04-06T22:44:54;7.70;99.90
21672;DHT22;10997;52.242;8.168;2023-04-06T22:49:55;7.70;99.90
21672;DHT22;10997;52.242;8.168;2023-04-06T22:54:56;7.70;99.90
21672;DHT22;10997;52.242;8.168;2023-04-06T22:59:56;7.70;99.90
21672;DHT22;10997;52.242;8.168;2023-04-06T23:04:57;7.70;99.90
21672;DHT22;10997;52.242;8.168;2023-04-06T23:09:58;7.70;99.90
21672;DHT22;10997;52.242;8.168;2023-04-06T23:14:58;7.80;99.90
21672;DHT22;10997;52.242;8.168;2023-04-06T23:19:59;7.80;99.90
21672;DHT22;10997;52.242;8.168;2023-04-06T23:25:00;7.80;99.90
21672;DHT22;10997;52.242;8.168;2023-04-06T23:30:00;7.80;99.90
21672;DHT22;10997;52.242;8.168;2023-04-06T23:35:01;7.80;99.90
21672;DHT22;10997;52.242;8.168;2023-04-06T23:40:01;7.70;99.90
21672;DHT22;10997;52.242;8.168;2023-04-06T23:45:04;7.70;99.90
21672;DHT22;10997;52.242;8.168;2023-04-06T23:50:05;7.70;99.90
21672;DHT22;10997;52.242;8.168;2023-04-06T23:55:06;7.60;99.90
